South West City, MO (64863)

1:39 PM CDT on October 20, 2014 (GMT -0500)
FryeComp -2 Mi/S SWC | Change Station
CLOSE
Current Station
Personal Weather Station
Location: Gravette, AR
Elevation: 1138 ft
Nearby Weather Stations

Elev 1138 ft 36.48 °N, 94.61 °W | Updated 11 seconds ago

Clear
Clear
69.0 °F
Feels Like 69.0 °F
N
3.0
Wind Variable Wind from NW
Gusts 7.0 mph

Today
High -- | Low -- °F
--% Chance of Precip.
Yesterday
High -- | Low -- °F
Precip. -- in
7:30 AM 6:35 PM
Waning Crescent, 9% visible
Pressure 30.07 in
Visibility 10.0 miles
Clouds Clear
Dew Point 60 °F
Humidity 73%
Rainfall 0.15 in
Snow Depth Not available.
UV 6 out of 12
Pollen 3.60 out of 12
Air Quality Not available.
Flu Activity No Activity
METAR KGMJ 201815Z AUTO 00000KT 10SM CLR 21/14 A3007 RMK AO2

More Conditions Fewer Conditions

Pressure 30.07 in
Visibility 10.0 miles
Clouds Clear
Dew Point 60 °F
Humidity 73%
Rainfall 0.15 in
Snow Depth Not available.
UV 6 out of 12
Pollen 3.60 out of 12
Air Quality Not available.
Flu Activity No Activity
METAR KGMJ 201815Z AUTO 00000KT 10SM CLR 21/14 A3007 RMK AO2

More Conditions Fewer Conditions

10-Day Weather Forecast

Almanac

Astronomy

Oct. 20, 2014 Rise Set
Actual Time 7:30 AM CDT 6:35 PM CDT
Civil Twilight 7:04 AM CDT 7:01 PM CDT
Nautical Twilight 6:34 AM CDT 7:31 PM CDT
Astronomical Twilight 6:04 AM CDT 8:01 PM CDT
Moon 4:24 AM CDT 4:54 PM CDT
Length of Visible Light 11h 57m
Length of Day
11h 05m
Waning Crescent, 9% of the Moon is Illuminated
Today
Waning Crescent
Oct 23
New
Oct 30
First Quarter
Nov 6
Full
Nov 14
Last Quarter

Today's Extremes

State Highs State Lows

Community

WunderPhotos

Upload Photos

1,763,460 photos uploaded!

Nearby

Snow Depth

Station Depth Elevation
No new snow has been reported.

Earthquake Activity

City Distance Mag. Time & Date
No recent earthquake activity has been reported nearby.
Minimum magnitude displayed is 2.5.

Coastal Water Temperatures

Place Temperature
No Stations Reporting

Nearby Weather Stations